Armavir, Russia

6:08 PM MSK on December 29, 2014 (GMT +0300)
Shpakovskoye | Change Station
CLOSE
Current Station
Airport
Location: Stavropol',
Elevation: 1483 ft
Nearby Weather Stations

Elev 1483 ft 45.12 °N, 42.08 °E | Updated 38 minutes ago

Clear
Clear
36 °F
Feels Like 25 °F
N
18
Wind Variable Wind from SE
Gusts 25 mph

Today
High -- | Low -- °F
--% Chance of Precip.
Yesterday
High -- | Low -- °F
Precip. -- in
7:53 AM 4:41 PM
First Quarter, 59% visible
Pressure 29.80 in
Visibility -9999.0 miles
Clouds
Windchill 25 °F
Dew Point 27 °F
Humidity 70%
Rainfall 0.00 in
Snow Depth Not available.
UV Not available.
Pollen Not available.
Air Quality Not available.
Flu Activity Not available.
METAR URMT 291430Z 14008G11MPS CAVOK 02/M03 Q1009 NOSIG RMK QFE717 SC060

More Conditions Fewer Conditions

Pressure 29.80 in
Visibility -9999.0 miles
Clouds
Windchill 25 °F
Dew Point 27 °F
Humidity 70%
Rainfall 0.00 in
Snow Depth Not available.
UV Not available.
Pollen Not available.
Air Quality Not available.
Flu Activity Not available.
METAR URMT 291430Z 14008G11MPS CAVOK 02/M03 Q1009 NOSIG RMK QFE717 SC060

More Conditions Fewer Conditions

10-Day Weather Forecast

Almanac

Astronomy

Dec. 29, 2014 Rise Set
Actual Time
Civil Twilight
Nautical Twilight
Astronomical Twilight
Moon
Length of Visible Light
Length of Day
Tomorrow will be .
, % of the Moon is Illuminated

Today's Extremes

Country Highs Country Lows

Community

WunderPhotos

Upload Photos

1,781,598 photos uploaded!

WunderBlogs® & News

Nearby

Air Quality

  Air Quality AQ Index Pollutant
Not available.

Snow Depth

Station Depth Elevation

Earthquake Activity

City Distance Mag. Time & Date
Minimum magnitude displayed is 2.5.

Coastal Water Temperatures

Place Temperature

Nearby Weather Stations